sensor_id;sensor_type;location;lat;lon;timestamp;P1;durP1;ratioP1;P2;durP2;ratioP2
41512;SDS011;27244;59.940;30.280;2022-09-27T00:01:47;4.78;;;3.55;;
41512;SDS011;27244;59.940;30.280;2022-09-27T00:04:14;4.00;;;3.35;;
41512;SDS011;27244;59.940;30.280;2022-09-27T00:06:42;4.53;;;3.45;;
41512;SDS011;27244;59.940;30.280;2022-09-27T00:09:09;6.00;;;3.47;;
41512;SDS011;27244;59.940;30.280;2022-09-27T00:11:37;3.97;;;3.40;;
41512;SDS011;27244;59.940;30.280;2022-09-27T00:14:08;5.90;;;3.20;;
41512;SDS011;27244;59.940;30.280;2022-09-27T00:16:38;3.38;;;2.55;;
41512;SDS011;27244;59.940;30.280;2022-09-27T00:19:07;4.40;;;2.97;;
41512;SDS011;27244;59.940;30.280;2022-09-27T00:21:38;4.43;;;3.05;;
41512;SDS011;27244;59.940;30.280;2022-09-27T00:24:05;2.80;;;2.33;;
41512;SDS011;27244;59.940;30.280;2022-09-27T00:26:32;3.85;;;2.72;;
41512;SDS011;27244;59.940;30.280;2022-09-27T00:28:59;5.40;;;3.00;;
41512;SDS011;27244;59.940;30.280;2022-09-27T00:31:28;4.20;;;3.00;;
41512;SDS011;27244;59.940;30.280;2022-09-27T00:33:56;3.58;;;2.83;;
41512;SDS011;27244;59.940;30.280;2022-09-27T00:36:26;2.72;;;2.42;;
41512;SDS011;27244;59.940;30.280;2022-09-27T00:38:54;4.22;;;2.63;;
41512;SDS011;27244;59.940;30.280;2022-09-27T00:41:22;3.10;;;2.47;;
41512;SDS011;27244;59.940;30.280;2022-09-27T00:43:51;3.03;;;2.63;;
41512;SDS011;27244;59.940;30.280;2022-09-27T00:46:22;4.07;;;2.60;;
41512;SDS011;27244;59.940;30.280;2022-09-27T00:48:59;3.55;;;2.40;;
41512;SDS011;27244;59.940;30.280;2022-09-27T00:51:31;3.05;;;2.40;;
41512;SDS011;27244;59.940;30.280;2022-09-27T00:54:00;3.17;;;2.10;;
41512;SDS011;27244;59.940;30.280;2022-09-27T00:56:28;3.03;;;2.42;;
41512;SDS011;27244;59.940;30.280;2022-09-27T00:58:58;3.03;;;2.17;;
41512;SDS011;27244;59.940;30.280;2022-09-27T01:01:31;3.65;;;2.22;;
41512;SDS011;27244;59.940;30.280;2022-09-27T01:04:00;3.75;;;2.40;;
41512;SDS011;27244;59.940;30.280;2022-09-27T01:06:31;2.53;;;2.10;;
41512;SDS011;27244;59.940;30.280;2022-09-27T01:08:58;3.15;;;2.38;;
41512;SDS011;27244;59.940;30.280;2022-09-27T01:11:30;2.88;;;2.20;;
41512;SDS011;27244;59.940;30.280;2022-09-27T01:14:09;3.33;;;2.10;;
41512;SDS011;27244;59.940;30.280;2022-09-27T01:16:49;2.40;;;1.80;;
41512;SDS011;27244;59.940;30.280;2022-09-27T01:19:34;2.38;;;1.83;;
41512;SDS011;27244;59.940;30.280;2022-09-27T01:22:19;2.63;;;1.63;;
41512;SDS011;27244;59.940;30.280;2022-09-27T01:24:54;2.80;;;1.92;;
41512;SDS011;27244;59.940;30.280;2022-09-27T01:30:38;4.22;;;2.00;;
41512;SDS011;27244;59.940;30.280;2022-09-27T01:33:11;3.45;;;2.50;;
41512;SDS011;27244;59.940;30.280;2022-09-27T01:35:49;5.25;;;2.60;;
41512;SDS011;27244;59.940;30.280;2022-09-27T01:38:25;5.22;;;2.40;;
41512;SDS011;27244;59.940;30.280;2022-09-27T01:41:03;5.15;;;2.20;;
41512;SDS011;27244;59.940;30.280;2022-09-27T01:43:56;4.07;;;2.08;;
41512;SDS011;27244;59.940;30.280;2022-09-27T01:46:34;3.35;;;2.10;;
41512;SDS011;27244;59.940;30.280;2022-09-27T01:49:22;3.53;;;1.92;;
41512;SDS011;27244;59.940;30.280;2022-09-27T01:51:54;4.35;;;1.90;;
41512;SDS011;27244;59.940;30.280;2022-09-27T01:54:26;7.47;;;2.25;;
41512;SDS011;27244;59.940;30.280;2022-09-27T01:57:18;3.85;;;2.25;;
41512;SDS011;27244;59.940;30.280;2022-09-27T01:59:49;5.93;;;2.28;;
41512;SDS011;27244;59.940;30.280;2022-09-27T02:02:42;2.90;;;2.00;;
41512;SDS011;27244;59.940;30.280;2022-09-27T02:05:37;4.60;;;1.83;;
41512;SDS011;27244;59.940;30.280;2022-09-27T02:08:30;3.30;;;1.88;;
41512;SDS011;27244;59.940;30.280;2022-09-27T02:11:10;4.22;;;2.00;;
41512;SDS011;27244;59.940;30.280;2022-09-27T02:13:45;3.65;;;1.98;;
41512;SDS011;27244;59.940;30.280;2022-09-27T02:16:40;4.60;;;2.25;;
41512;SDS011;27244;59.940;30.280;2022-09-27T02:19:20;3.58;;;2.15;;
41512;SDS011;27244;59.940;30.280;2022-09-27T02:21:55;3.35;;;1.90;;
41512;SDS011;27244;59.940;30.280;2022-09-27T02:24:32;2.95;;;2.05;;
41512;SDS011;27244;59.940;30.280;2022-09-27T02:27:05;4.07;;;1.92;;
41512;SDS011;27244;59.940;30.280;2022-09-27T02:29:40;3.05;;;1.90;;
41512;SDS011;27244;59.940;30.280;2022-09-27T02:32:11;3.78;;;2.42;;
41512;SDS011;27244;59.940;30.280;2022-09-27T02:34:43;2.70;;;1.80;;
41512;SDS011;27244;59.940;30.280;2022-09-27T02:37:12;4.25;;;2.17;;
41512;SDS011;27244;59.940;30.280;2022-09-27T02:39:40;4.50;;;1.80;;
41512;SDS011;27244;59.940;30.280;2022-09-27T02:42:08;3.83;;;1.90;;
41512;SDS011;27244;59.940;30.280;2022-09-27T02:44:37;2.17;;;1.80;;
41512;SDS011;27244;59.940;30.280;2022-09-27T02:50:12;2.80;;;1.90;;
41512;SDS011;27244;59.940;30.280;2022-09-27T02:52:55;2.65;;;1.80;;
41512;SDS011;27244;59.940;30.280;2022-09-27T02:55:39;3.00;;;1.70;;
41512;SDS011;27244;59.940;30.280;2022-09-27T02:58:44;5.22;;;2.10;;
41512;SDS011;27244;59.940;30.280;2022-09-27T03:01:48;3.50;;;1.98;;
41512;SDS011;27244;59.940;30.280;2022-09-27T03:04:33;3.38;;;1.70;;
41512;SDS011;27244;59.940;30.280;2022-09-27T03:07:06;3.65;;;1.92;;
41512;SDS011;27244;59.940;30.280;2022-09-27T03:09:40;3.05;;;1.77;;
41512;SDS011;27244;59.940;30.280;2022-09-27T03:12:09;3.15;;;1.77;;
41512;SDS011;27244;59.940;30.280;2022-09-27T03:14:36;3.08;;;1.92;;
41512;SDS011;27244;59.940;30.280;2022-09-27T03:17:21;3.75;;;2.35;;
41512;SDS011;27244;59.940;30.280;2022-09-27T03:20:17;3.10;;;2.00;;
41512;SDS011;27244;59.940;30.280;2022-09-27T03:23:11;3.20;;;2.00;;
41512;SDS011;27244;59.940;30.280;2022-09-27T03:25:39;3.05;;;2.00;;
41512;SDS011;27244;59.940;30.280;2022-09-27T03:28:07;2.80;;;2.08;;
41512;SDS011;27244;59.940;30.280;2022-09-27T03:30:34;3.78;;;1.98;;
41512;SDS011;27244;59.940;30.280;2022-09-27T03:33:02;4.18;;;2.00;;
41512;SDS011;27244;59.940;30.280;2022-09-27T03:35:32;4.22;;;2.05;;
41512;SDS011;27244;59.940;30.280;2022-09-27T03:37:59;3.15;;;2.20;;
41512;SDS011;27244;59.940;30.280;2022-09-27T03:40:28;3.60;;;2.50;;
41512;SDS011;27244;59.940;30.280;2022-09-27T03:42:55;3.65;;;2.40;;
41512;SDS011;27244;59.940;30.280;2022-09-27T03:45:22;5.28;;;2.60;;
41512;SDS011;27244;59.940;30.280;2022-09-27T03:47:50;3.55;;;2.40;;
41512;SDS011;27244;59.940;30.280;2022-09-27T03:50:17;4.40;;;2.30;;
41512;SDS011;27244;59.940;30.280;2022-09-27T03:52:44;5.72;;;2.80;;
41512;SDS011;27244;59.940;30.280;2022-09-27T03:55:11;4.30;;;3.05;;
41512;SDS011;27244;59.940;30.280;2022-09-27T03:57:44;3.63;;;3.00;;
41512;SDS011;27244;59.940;30.280;2022-09-27T04:00:15;5.28;;;2.83;;
41512;SDS011;27244;59.940;30.280;2022-09-27T04:02:43;3.15;;;2.40;;
41512;SDS011;27244;59.940;30.280;2022-09-27T04:05:22;4.80;;;3.30;;
41512;SDS011;27244;59.940;30.280;2022-09-27T04:07:54;3.60;;;2.92;;
41512;SDS011;27244;59.940;30.280;2022-09-27T04:10:22;6.45;;;3.00;;
41512;SDS011;27244;59.940;30.280;2022-09-27T04:12:51;3.75;;;2.97;;
41512;SDS011;27244;59.940;30.280;2022-09-27T04:15:21;4.72;;;2.70;;
41512;SDS011;27244;59.940;30.280;2022-09-27T04:17:48;6.60;;;3.25;;
41512;SDS011;27244;59.940;30.280;2022-09-27T04:20:33;4.15;;;2.63;;
41512;SDS011;27244;59.940;30.280;2022-09-27T04:23:05;3.95;;;2.95;;
41512;SDS011;27244;59.940;30.280;2022-09-27T04:25:35;4.30;;;2.83;;
41512;SDS011;27244;59.940;30.280;2022-09-27T04:28:16;4.13;;;2.95;;
41512;SDS011;27244;59.940;30.280;2022-09-27T04:30:44;4.68;;;3.03;;
41512;SDS011;27244;59.940;30.280;2022-09-27T04:33:11;4.40;;;2.53;;
41512;SDS011;27244;59.940;30.280;2022-09-27T04:35:41;10.48;;;2.33;;
41512;SDS011;27244;59.940;30.280;2022-09-27T04:38:29;7.47;;;2.58;;
41512;SDS011;27244;59.940;30.280;2022-09-27T04:40:56;6.47;;;2.33;;
41512;SDS011;27244;59.940;30.280;2022-09-27T04:43:29;4.60;;;2.58;;
41512;SDS011;27244;59.940;30.280;2022-09-27T04:45:58;4.05;;;2.92;;
41512;SDS011;27244;59.940;30.280;2022-09-27T04:48:25;4.60;;;2.45;;
41512;SDS011;27244;59.940;30.280;2022-09-27T04:50:55;4.05;;;2.30;;
41512;SDS011;27244;59.940;30.280;2022-09-27T04:53:23;6.03;;;2.63;;
41512;SDS011;27244;59.940;30.280;2022-09-27T04:55:51;4.80;;;2.50;;
41512;SDS011;27244;59.940;30.280;2022-09-27T04:58:19;3.55;;;2.60;;
41512;SDS011;27244;59.940;30.280;2022-09-27T05:00:48;5.25;;;2.97;;
41512;SDS011;27244;59.940;30.280;2022-09-27T05:03:35;3.67;;;2.75;;
41512;SDS011;27244;59.940;30.280;2022-09-27T05:06:09;3.88;;;2.55;;
41512;SDS011;27244;59.940;30.280;2022-09-27T05:08:40;5.10;;;3.30;;
41512;SDS011;27244;59.940;30.280;2022-09-27T05:11:21;5.70;;;3.03;;
41512;SDS011;27244;59.940;30.280;2022-09-27T05:14:17;4.25;;;2.60;;
41512;SDS011;27244;59.940;30.280;2022-09-27T05:17:08;4.43;;;2.60;;
41512;SDS011;27244;59.940;30.280;2022-09-27T05:19:54;4.47;;;2.65;;
41512;SDS011;27244;59.940;30.280;2022-09-27T05:25:05;3.60;;;2.65;;
41512;SDS011;27244;59.940;30.280;2022-09-27T05:27:33;5.65;;;2.83;;
41512;SDS011;27244;59.940;30.280;2022-09-27T05:30:00;4.25;;;2.70;;
41512;SDS011;27244;59.940;30.280;2022-09-27T05:32:42;3.72;;;2.67;;
41512;SDS011;27244;59.940;30.280;2022-09-27T05:35:34;3.33;;;2.35;;
41512;SDS011;27244;59.940;30.280;2022-09-27T05:38:02;3.65;;;2.45;;
41512;SDS011;27244;59.940;30.280;2022-09-27T05:40:33;3.47;;;2.22;;
41512;SDS011;27244;59.940;30.280;2022-09-27T05:43:00;4.07;;;2.40;;
41512;SDS011;27244;59.940;30.280;2022-09-27T05:45:27;3.83;;;2.30;;
41512;SDS011;27244;59.940;30.280;2022-09-27T05:48:01;4.97;;;2.88;;
41512;SDS011;27244;59.940;30.280;2022-09-27T05:50:31;6.45;;;2.75;;
41512;SDS011;27244;59.940;30.280;2022-09-27T05:52:58;3.45;;;2.38;;
41512;SDS011;27244;59.940;30.280;2022-09-27T05:55:25;3.63;;;2.60;;
41512;SDS011;27244;59.940;30.280;2022-09-27T05:57:54;21.90;;;3.65;;
41512;SDS011;27244;59.940;30.280;2022-09-27T06:00:27;9.43;;;2.60;;
41512;SDS011;27244;59.940;30.280;2022-09-27T06:02:55;9.73;;;3.00;;
41512;SDS011;27244;59.940;30.280;2022-09-27T06:05:43;6.78;;;2.92;;
41512;SDS011;27244;59.940;30.280;2022-09-27T06:08:16;4.72;;;2.60;;
41512;SDS011;27244;59.940;30.280;2022-09-27T06:10:47;6.90;;;2.55;;
41512;SDS011;27244;59.940;30.280;2022-09-27T06:13:16;8.40;;;3.08;;
41512;SDS011;27244;59.940;30.280;2022-09-27T06:15:44;8.63;;;2.65;;
41512;SDS011;27244;59.940;30.280;2022-09-27T06:18:12;5.65;;;2.45;;
41512;SDS011;27244;59.940;30.280;2022-09-27T06:20:46;7.82;;;2.70;;
41512;SDS011;27244;59.940;30.280;2022-09-27T06:23:13;14.68;;;3.22;;
41512;SDS011;27244;59.940;30.280;2022-09-27T06:25:43;9.15;;;2.53;;
41512;SDS011;27244;59.940;30.280;2022-09-27T06:28:34;4.40;;;2.67;;
41512;SDS011;27244;59.940;30.280;2022-09-27T06:31:03;6.80;;;2.75;;
41512;SDS011;27244;59.940;30.280;2022-09-27T06:33:38;10.38;;;2.60;;
41512;SDS011;27244;59.940;30.280;2022-09-27T06:36:07;10.13;;;2.92;;
41512;SDS011;27244;59.940;30.280;2022-09-27T06:38:37;8.32;;;3.03;;
41512;SDS011;27244;59.940;30.280;2022-09-27T06:41:12;8.15;;;2.78;;
41512;SDS011;27244;59.940;30.280;2022-09-27T06:44:11;8.75;;;4.03;;
41512;SDS011;27244;59.940;30.280;2022-09-27T06:46:57;5.43;;;3.47;;
41512;SDS011;27244;59.940;30.280;2022-09-27T06:49:42;5.60;;;4.47;;
41512;SDS011;27244;59.940;30.280;2022-09-27T06:52:11;8.07;;;5.25;;
41512;SDS011;27244;59.940;30.280;2022-09-27T06:54:38;9.52;;;6.07;;
41512;SDS011;27244;59.940;30.280;2022-09-27T06:57:05;10.27;;;6.15;;
41512;SDS011;27244;59.940;30.280;2022-09-27T06:59:32;8.30;;;5.88;;
41512;SDS011;27244;59.940;30.280;2022-09-27T07:02:50;7.78;;;6.40;;
41512;SDS011;27244;59.940;30.280;2022-09-27T07:05:37;11.18;;;7.40;;
41512;SDS011;27244;59.940;30.280;2022-09-27T07:08:22;9.05;;;6.32;;
41512;SDS011;27244;59.940;30.280;2022-09-27T07:10:50;7.72;;;5.55;;
41512;SDS011;27244;59.940;30.280;2022-09-27T07:13:19;7.28;;;5.28;;
41512;SDS011;27244;59.940;30.280;2022-09-27T07:15:47;8.13;;;6.20;;
41512;SDS011;27244;59.940;30.280;2022-09-27T07:18:15;10.60;;;5.80;;
41512;SDS011;27244;59.940;30.280;2022-09-27T07:20:42;21.50;;;7.07;;
41512;SDS011;27244;59.940;30.280;2022-09-27T07:23:09;17.27;;;7.00;;
41512;SDS011;27244;59.940;30.280;2022-09-27T07:25:38;9.35;;;6.95;;
41512;SDS011;27244;59.940;30.280;2022-09-27T07:28:06;10.63;;;7.50;;
41512;SDS011;27244;59.940;30.280;2022-09-27T07:30:36;10.05;;;8.95;;
41512;SDS011;27244;59.940;30.280;2022-09-27T07:33:03;10.73;;;9.50;;
41512;SDS011;27244;59.940;30.280;2022-09-27T07:35:32;17.92;;;10.10;;
41512;SDS011;27244;59.940;30.280;2022-09-27T07:38:00;37.90;;;10.38;;
41512;SDS011;27244;59.940;30.280;2022-09-27T07:40:46;14.10;;;9.30;;
41512;SDS011;27244;59.940;30.280;2022-09-27T07:43:19;19.02;;;9.93;;
41512;SDS011;27244;59.940;30.280;2022-09-27T07:45:47;14.32;;;8.35;;
41512;SDS011;27244;59.940;30.280;2022-09-27T07:48:31;14.60;;;9.07;;
41512;SDS011;27244;59.940;30.280;2022-09-27T07:51:07;14.82;;;9.55;;
41512;SDS011;27244;59.940;30.280;2022-09-27T07:53:44;17.52;;;9.75;;
41512;SDS011;27244;59.940;30.280;2022-09-27T07:56:39;15.02;;;9.57;;
41512;SDS011;27244;59.940;30.280;2022-09-27T07:59:09;11.68;;;9.73;;
41512;SDS011;27244;59.940;30.280;2022-09-27T08:01:36;16.80;;;9.55;;
41512;SDS011;27244;59.940;30.280;2022-09-27T08:04:03;16.10;;;9.35;;
41512;SDS011;27244;59.940;30.280;2022-09-27T08:06:31;11.57;;;8.55;;
41512;SDS011;27244;59.940;30.280;2022-09-27T08:08:58;13.15;;;7.88;;
41512;SDS011;27244;59.940;30.280;2022-09-27T08:11:27;12.98;;;8.65;;
41512;SDS011;27244;59.940;30.280;2022-09-27T08:13:56;13.77;;;8.88;;
41512;SDS011;27244;59.940;30.280;2022-09-27T08:16:28;10.73;;;8.38;;
41512;SDS011;27244;59.940;30.280;2022-09-27T08:19:16;10.73;;;8.32;;
41512;SDS011;27244;59.940;30.280;2022-09-27T08:22:06;12.38;;;9.00;;
41512;SDS011;27244;59.940;30.280;2022-09-27T08:24:54;12.20;;;10.15;;
41512;SDS011;27244;59.940;30.280;2022-09-27T08:27:40;12.27;;;8.90;;
41512;SDS011;27244;59.940;30.280;2022-09-27T08:30:24;11.98;;;9.20;;
41512;SDS011;27244;59.940;30.280;2022-09-27T08:32:55;11.70;;;7.82;;
41512;SDS011;27244;59.940;30.280;2022-09-27T08:35:23;7.75;;;6.55;;
41512;SDS011;27244;59.940;30.280;2022-09-27T08:37:54;9.15;;;6.60;;
41512;SDS011;27244;59.940;30.280;2022-09-27T08:40:23;8.68;;;5.80;;
41512;SDS011;27244;59.940;30.280;2022-09-27T08:42:59;8.15;;;6.25;;
41512;SDS011;27244;59.940;30.280;2022-09-27T08:45:36;12.18;;;6.28;;
41512;SDS011;27244;59.940;30.280;2022-09-27T08:48:07;8.07;;;5.85;;
41512;SDS011;27244;59.940;30.280;2022-09-27T08:50:39;7.25;;;5.80;;
41512;SDS011;27244;59.940;30.280;2022-09-27T08:53:15;9.55;;;6.57;;
41512;SDS011;27244;59.940;30.280;2022-09-27T08:55:48;11.73;;;6.85;;
41512;SDS011;27244;59.940;30.280;2022-09-27T08:58:25;9.85;;;7.47;;
41512;SDS011;27244;59.940;30.280;2022-09-27T09:00:56;10.13;;;8.27;;
41512;SDS011;27244;59.940;30.280;2022-09-27T09:03:31;14.95;;;9.40;;
41512;SDS011;27244;59.940;30.280;2022-09-27T09:06:06;11.18;;;9.20;;
41512;SDS011;27244;59.940;30.280;2022-09-27T09:08:46;9.15;;;8.05;;
41512;SDS011;27244;59.940;30.280;2022-09-27T09:11:26;10.82;;;8.52;;
41512;SDS011;27244;59.940;30.280;2022-09-27T09:14:24;10.15;;;7.35;;
41512;SDS011;27244;59.940;30.280;2022-09-27T09:17:06;9.98;;;7.50;;
41512;SDS011;27244;59.940;30.280;2022-09-27T09:19:59;7.60;;;6.75;;
41512;SDS011;27244;59.940;30.280;2022-09-27T09:23:00;8.63;;;6.25;;
41512;SDS011;27244;59.940;30.280;2022-09-27T09:25:45;6.85;;;6.13;;
41512;SDS011;27244;59.940;30.280;2022-09-27T09:28:25;7.90;;;5.57;;
41512;SDS011;27244;59.940;30.280;2022-09-27T09:31:03;6.25;;;5.60;;
41512;SDS011;27244;59.940;30.280;2022-09-27T09:33:39;6.15;;;5.05;;
41512;SDS011;27244;59.940;30.280;2022-09-27T09:36:14;7.20;;;5.22;;
41512;SDS011;27244;59.940;30.280;2022-09-27T09:38:51;7.75;;;5.10;;
41512;SDS011;27244;59.940;30.280;2022-09-27T09:41:23;8.30;;;5.28;;
41512;SDS011;27244;59.940;30.280;2022-09-27T09:44:01;5.05;;;4.55;;
41512;SDS011;27244;59.940;30.280;2022-09-27T09:46:47;6.03;;;4.90;;
41512;SDS011;27244;59.940;30.280;2022-09-27T09:49:32;6.97;;;4.53;;
41512;SDS011;27244;59.940;30.280;2022-09-27T09:52:06;5.72;;;4.85;;
41512;SDS011;27244;59.940;30.280;2022-09-27T09:54:59;6.28;;;4.93;;
41512;SDS011;27244;59.940;30.280;2022-09-27T09:58:05;6.00;;;4.50;;
41512;SDS011;27244;59.940;30.280;2022-09-27T10:00:48;7.22;;;4.35;;
41512;SDS011;27244;59.940;30.280;2022-09-27T10:03:19;6.22;;;4.20;;
41512;SDS011;27244;59.940;30.280;2022-09-27T10:05:48;7.07;;;4.30;;
41512;SDS011;27244;59.940;30.280;2022-09-27T10:08:17;5.57;;;4.35;;
41512;SDS011;27244;59.940;30.280;2022-09-27T10:11:34;5.47;;;3.83;;
41512;SDS011;27244;59.940;30.280;2022-09-27T10:14:12;5.90;;;4.50;;
41512;SDS011;27244;59.940;30.280;2022-09-27T10:16:43;6.67;;;4.30;;
41512;SDS011;27244;59.940;30.280;2022-09-27T10:19:14;6.57;;;3.90;;
41512;SDS011;27244;59.940;30.280;2022-09-27T10:21:46;8.45;;;4.30;;
41512;SDS011;27244;59.940;30.280;2022-09-27T10:24:22;6.95;;;3.95;;
41512;SDS011;27244;59.940;30.280;2022-09-27T10:27:10;5.50;;;3.90;;
41512;SDS011;27244;59.940;30.280;2022-09-27T10:29:41;5.68;;;4.63;;
41512;SDS011;27244;59.940;30.280;2022-09-27T10:32:19;7.05;;;4.55;;
41512;SDS011;27244;59.940;30.280;2022-09-27T10:34:53;5.13;;;4.32;;
41512;SDS011;27244;59.940;30.280;2022-09-27T10:37:54;8.77;;;4.82;;
41512;SDS011;27244;59.940;30.280;2022-09-27T10:40:50;7.22;;;4.70;;
41512;SDS011;27244;59.940;30.280;2022-09-27T10:43:27;9.48;;;4.93;;
41512;SDS011;27244;59.940;30.280;2022-09-27T10:46:15;6.68;;;5.13;;
41512;SDS011;27244;59.940;30.280;2022-09-27T10:49:09;9.82;;;5.40;;
41512;SDS011;27244;59.940;30.280;2022-09-27T10:51:51;8.18;;;4.70;;
41512;SDS011;27244;59.940;30.280;2022-09-27T10:57:32;7.28;;;4.82;;
41512;SDS011;27244;59.940;30.280;2022-09-27T11:00:02;6.63;;;4.90;;
41512;SDS011;27244;59.940;30.280;2022-09-27T11:02:33;7.45;;;4.68;;
41512;SDS011;27244;59.940;30.280;2022-09-27T11:05:14;7.50;;;5.18;;
41512;SDS011;27244;59.940;30.280;2022-09-27T11:07:57;9.32;;;5.38;;
41512;SDS011;27244;59.940;30.280;2022-09-27T11:10:58;9.23;;;5.53;;
41512;SDS011;27244;59.940;30.280;2022-09-27T11:14:02;11.07;;;5.30;;
41512;SDS011;27244;59.940;30.280;2022-09-27T11:16:47;8.98;;;4.95;;
41512;SDS011;27244;59.940;30.280;2022-09-27T11:19:31;8.05;;;4.70;;
41512;SDS011;27244;59.940;30.280;2022-09-27T11:22:14;10.98;;;5.25;;
41512;SDS011;27244;59.940;30.280;2022-09-27T11:25:49;6.80;;;4.55;;
41512;SDS011;27244;59.940;30.280;2022-09-27T11:28:28;8.82;;;4.10;;
41512;SDS011;27244;59.940;30.280;2022-09-27T11:31:14;6.25;;;3.90;;
41512;SDS011;27244;59.940;30.280;2022-09-27T11:34:04;6.70;;;4.50;;
41512;SDS011;27244;59.940;30.280;2022-09-27T11:36:46;10.15;;;4.55;;
41512;SDS011;27244;59.940;30.280;2022-09-27T11:39:25;7.45;;;5.10;;
41512;SDS011;27244;59.940;30.280;2022-09-27T11:42:07;8.45;;;4.72;;
41512;SDS011;27244;59.940;30.280;2022-09-27T11:44:53;6.10;;;5.03;;
41512;SDS011;27244;59.940;30.280;2022-09-27T11:47:42;14.68;;;5.85;;
41512;SDS011;27244;59.940;30.280;2022-09-27T11:50:28;8.25;;;5.18;;
41512;SDS011;27244;59.940;30.280;2022-09-27T11:53:16;9.25;;;4.72;;
41512;SDS011;27244;59.940;30.280;2022-09-27T11:55:58;4.63;;;3.92;;
41512;SDS011;27244;59.940;30.280;2022-09-27T11:58:40;4.85;;;3.60;;
41512;SDS011;27244;59.940;30.280;2022-09-27T12:01:22;7.00;;;4.10;;
41512;SDS011;27244;59.940;30.280;2022-09-27T12:06:53;4.95;;;3.65;;
41512;SDS011;27244;59.940;30.280;2022-09-27T12:09:29;6.72;;;3.58;;
41512;SDS011;27244;59.940;30.280;2022-09-27T12:12:02;6.03;;;3.75;;
41512;SDS011;27244;59.940;30.280;2022-09-27T12:14:34;6.22;;;3.53;;
41512;SDS011;27244;59.940;30.280;2022-09-27T12:17:05;6.70;;;3.65;;
41512;SDS011;27244;59.940;30.280;2022-09-27T12:19:40;5.32;;;3.40;;
41512;SDS011;27244;59.940;30.280;2022-09-27T12:22:19;4.65;;;3.05;;
41512;SDS011;27244;59.940;30.280;2022-09-27T12:24:50;5.65;;;3.20;;
41512;SDS011;27244;59.940;30.280;2022-09-27T12:27:34;5.22;;;3.38;;
41512;SDS011;27244;59.940;30.280;2022-09-27T12:30:12;5.05;;;3.60;;
41512;SDS011;27244;59.940;30.280;2022-09-27T12:32:43;5.63;;;3.40;;
41512;SDS011;27244;59.940;30.280;2022-09-27T12:35:20;7.40;;;3.90;;
41512;SDS011;27244;59.940;30.280;2022-09-27T12:37:52;7.22;;;4.15;;
41512;SDS011;27244;59.940;30.280;2022-09-27T12:40:28;7.35;;;3.70;;
41512;SDS011;27244;59.940;30.280;2022-09-27T12:43:02;5.93;;;4.07;;
41512;SDS011;27244;59.940;30.280;2022-09-27T12:45:53;9.45;;;4.72;;
41512;SDS011;27244;59.940;30.280;2022-09-27T12:48:32;8.88;;;4.70;;
41512;SDS011;27244;59.940;30.280;2022-09-27T12:51:07;7.88;;;4.88;;
41512;SDS011;27244;59.940;30.280;2022-09-27T12:53:40;9.40;;;5.50;;
41512;SDS011;27244;59.940;30.280;2022-09-27T12:56:23;7.70;;;5.13;;
41512;SDS011;27244;59.940;30.280;2022-09-27T12:59:09;7.80;;;5.00;;
41512;SDS011;27244;59.940;30.280;2022-09-27T13:01:54;7.78;;;4.32;;
41512;SDS011;27244;59.940;30.280;2022-09-27T13:04:44;7.18;;;4.45;;
41512;SDS011;27244;59.940;30.280;2022-09-27T13:07:25;6.63;;;4.22;;
41512;SDS011;27244;59.940;30.280;2022-09-27T13:10:09;6.57;;;3.80;;
41512;SDS011;27244;59.940;30.280;2022-09-27T13:12:51;6.18;;;4.20;;
41512;SDS011;27244;59.940;30.280;2022-09-27T13:15:21;6.35;;;4.25;;
41512;SDS011;27244;59.940;30.280;2022-09-27T13:17:55;7.78;;;4.07;;
41512;SDS011;27244;59.940;30.280;2022-09-27T13:20:52;6.00;;;3.55;;
41512;SDS011;27244;59.940;30.280;2022-09-27T13:23:55;5.75;;;3.78;;
41512;SDS011;27244;59.940;30.280;2022-09-27T13:29:47;5.85;;;3.80;;
41512;SDS011;27244;59.940;30.280;2022-09-27T13:32:38;6.30;;;3.33;;
41512;SDS011;27244;59.940;30.280;2022-09-27T13:42:32;4.43;;;3.15;;
41512;SDS011;27244;59.940;30.280;2022-09-27T13:48:39;6.50;;;3.42;;
41512;SDS011;27244;59.940;30.280;2022-09-27T13:51:41;5.25;;;3.35;;
41512;SDS011;27244;59.940;30.280;2022-09-27T13:57:55;4.90;;;2.83;;
41512;SDS011;27244;59.940;30.280;2022-09-27T14:00:37;4.13;;;2.97;;
41512;SDS011;27244;59.940;30.280;2022-09-27T14:09:51;6.00;;;2.92;;
41512;SDS011;27244;59.940;30.280;2022-09-27T14:12:39;4.90;;;2.88;;
41512;SDS011;27244;59.940;30.280;2022-09-27T14:16:04;4.80;;;2.88;;
41512;SDS011;27244;59.940;30.280;2022-09-27T14:27:33;5.32;;;2.83;;
41512;SDS011;27244;59.940;30.280;2022-09-27T14:34:31;8.27;;;6.70;;
41512;SDS011;27244;59.940;30.280;2022-09-27T14:43:10;6.78;;;5.35;;
41512;SDS011;27244;59.940;30.280;2022-09-27T14:51:41;11.43;;;9.27;;
41512;SDS011;27244;59.940;30.280;2022-09-27T14:57:14;8.90;;;7.70;;
41512;SDS011;27244;59.940;30.280;2022-09-27T15:06:30;9.68;;;6.80;;
41512;SDS011;27244;59.940;30.280;2022-09-27T15:18:30;8.93;;;7.47;;
41512;SDS011;27244;59.940;30.280;2022-09-27T15:21:00;9.15;;;7.50;;
41512;SDS011;27244;59.940;30.280;2022-09-27T15:23:33;7.53;;;6.55;;
41512;SDS011;27244;59.940;30.280;2022-09-27T15:26:18;9.38;;;7.45;;
41512;SDS011;27244;59.940;30.280;2022-09-27T15:35:14;12.93;;;8.13;;
41512;SDS011;27244;59.940;30.280;2022-09-27T15:37:49;8.68;;;7.15;;
41512;SDS011;27244;59.940;30.280;2022-09-27T15:46:31;10.30;;;8.00;;
41512;SDS011;27244;59.940;30.280;2022-09-27T15:51:47;8.38;;;7.45;;
41512;SDS011;27244;59.940;30.280;2022-09-27T15:57:33;9.07;;;7.63;;
41512;SDS011;27244;59.940;30.280;2022-09-27T16:00:00;8.88;;;7.88;;
41512;SDS011;27244;59.940;30.280;2022-09-27T16:03:27;8.68;;;7.38;;
41512;SDS011;27244;59.940;30.280;2022-09-27T16:06:36;9.10;;;7.70;;
41512;SDS011;27244;59.940;30.280;2022-09-27T16:08:50;8.60;;;6.75;;
41512;SDS011;27244;59.940;30.280;2022-09-27T16:11:52;8.57;;;7.00;;
41512;SDS011;27244;59.940;30.280;2022-09-27T16:14:23;7.53;;;6.65;;
41512;SDS011;27244;59.940;30.280;2022-09-27T16:16:50;7.68;;;6.35;;
41512;SDS011;27244;59.940;30.280;2022-09-27T16:19:20;8.20;;;6.53;;
41512;SDS011;27244;59.940;30.280;2022-09-27T16:21:47;7.05;;;6.10;;
41512;SDS011;27244;59.940;30.280;2022-09-27T16:24:15;7.30;;;6.43;;
41512;SDS011;27244;59.940;30.280;2022-09-27T16:26:42;7.97;;;6.18;;
41512;SDS011;27244;59.940;30.280;2022-09-27T16:29:21;6.30;;;5.63;;
41512;SDS011;27244;59.940;30.280;2022-09-27T16:32:10;6.93;;;6.13;;
41512;SDS011;27244;59.940;30.280;2022-09-27T16:34:37;6.25;;;5.55;;
41512;SDS011;27244;59.940;30.280;2022-09-27T16:37:04;6.55;;;5.82;;
41512;SDS011;27244;59.940;30.280;2022-09-27T16:39:34;6.68;;;5.57;;
41512;SDS011;27244;59.940;30.280;2022-09-27T16:42:01;7.57;;;5.60;;
41512;SDS011;27244;59.940;30.280;2022-09-27T16:44:30;6.32;;;5.70;;
41512;SDS011;27244;59.940;30.280;2022-09-27T16:46:58;7.25;;;5.60;;
41512;SDS011;27244;59.940;30.280;2022-09-27T16:49:30;7.05;;;5.40;;
41512;SDS011;27244;59.940;30.280;2022-09-27T16:52:16;7.60;;;6.10;;
41512;SDS011;27244;59.940;30.280;2022-09-27T16:54:52;8.93;;;5.68;;
41512;SDS011;27244;59.940;30.280;2022-09-27T16:57:26;7.95;;;6.20;;
41512;SDS011;27244;59.940;30.280;2022-09-27T16:59:53;7.18;;;5.93;;
41512;SDS011;27244;59.940;30.280;2022-09-27T17:02:21;8.13;;;6.88;;
41512;SDS011;27244;59.940;30.280;2022-09-27T17:04:51;7.18;;;6.38;;
41512;SDS011;27244;59.940;30.280;2022-09-27T17:07:18;6.70;;;6.00;;
41512;SDS011;27244;59.940;30.280;2022-09-27T17:09:49;10.68;;;7.47;;
41512;SDS011;27244;59.940;30.280;2022-09-27T17:12:15;9.52;;;7.30;;